Time;durP1;ratioP1;P1;durP2;ratioP2;P2;SDS_P1;SDS_P2;PMS_P1;PMS_P2;Temp;Humidity;BMP_temperature;BMP_pressure;BME280_temperature;BME280_humidity;BME280_pressure;Samples;Min_cycle;Max_cycle;Signal;HPM_P1;HPM_P2
2022/07/27 00:01:25;;;;;;;;;;;27.80;42.90;;;;;;1479391;78;1584;-57
2022/07/27 00:03:27;;;;;;;;;;;27.70;42.90;;;;;;1472373;78;1155;-57
2022/07/27 00:05:29;;;;;;;;;;;27.70;42.90;;;;;;1479279;78;679;-55
2022/07/27 00:07:31;;;;;;;;;;;27.80;42.80;;;;;;1482071;79;1942;-57
2022/07/27 00:09:33;;;;;;;;;;;27.80;42.80;;;;;;1487762;78;684;-56
2022/07/27 00:11:35;;;;;;;;;;;27.80;42.70;;;;;;1488067;78;848;-57
2022/07/27 00:13:37;;;;;;;;;;;27.70;42.70;;;;;;1479372;78;1155;-58
2022/07/27 00:15:39;;;;;;;;;;;27.80;42.60;;;;;;1489201;78;1678;-57
2022/07/27 00:17:41;;;;;;;;;;;27.80;42.50;;;;;;1503224;78;741;-58
2022/07/27 00:19:42;;;;;;;;;;;27.70;42.50;;;;;;1482347;78;735;-57
2022/07/27 00:21:44;;;;;;;;;;;27.80;42.50;;;;;;1480392;78;1155;-57
2022/07/27 00:23:46;;;;;;;;;;;27.70;42.40;;;;;;1477319;79;638;-56
2022/07/27 00:25:48;;;;;;;;;;;27.70;42.40;;;;;;1477567;78;760;-55
2022/07/27 00:27:50;;;;;;;;;;;27.70;42.30;;;;;;1478384;78;1954;-58
2022/07/27 00:29:52;;;;;;;;;;;27.80;42.30;;;;;;1481105;78;1671;-57
2022/07/27 00:31:54;;;;;;;;;;;27.70;42.20;;;;;;1485824;78;1134;-55
2022/07/27 00:33:56;;;;;;;;;;;27.70;42.20;;;;;;1479177;78;724;-58
2022/07/27 00:35:57;;;;;;;;;;;27.70;42.20;;;;;;1465633;79;650;-57
2022/07/27 00:37:59;;;;;;;;;;;27.70;42.10;;;;;;1479926;78;681;-57
2022/07/27 00:40:01;;;;;;;;;;;27.70;42.10;;;;;;1479234;78;715;-56
2022/07/27 00:42:03;;;;;;;;;;;27.70;42.10;;;;;;1479049;79;1176;-57
2022/07/27 00:44:05;;;;;;;;;;;27.70;42.10;;;;;;1478037;79;1386;-57
2022/07/27 00:46:07;;;;;;;;;;;27.70;42.10;;;;;;1490053;78;693;-57
2022/07/27 00:48:09;;;;;;;;;;;27.70;42.10;;;;;;1484423;78;747;-57
2022/07/27 00:50:11;;;;;;;;;;;27.70;42.00;;;;;;1472847;79;675;-57
2022/07/27 00:52:13;;;;;;;;;;;27.70;42.00;;;;;;1479060;78;1148;-57
2022/07/27 00:54:15;;;;;;;;;;;27.70;41.90;;;;;;1466950;74;2110;-58
2022/07/27 00:56:17;;;;;;;;;;;27.70;41.90;;;;;;1435663;81;652;-58
2022/07/27 00:58:19;;;;;;;;;;;27.70;41.90;;;;;;1457492;80;1372;-57
2022/07/27 01:00:21;;;;;;;;;;;27.70;41.80;;;;;;1460772;79;667;-57
2022/07/27 01:02:23;;;;;;;;;;;27.70;41.70;;;;;;1456814;79;1225;-58
2022/07/27 01:04:25;;;;;;;;;;;27.70;41.70;;;;;;1464479;79;711;-58
2022/07/27 01:06:27;;;;;;;;;;;27.70;41.70;;;;;;1468808;79;1925;-58
2022/07/27 01:08:29;;;;;;;;;;;27.70;41.70;;;;;;1481801;79;742;-58
2022/07/27 01:10:31;;;;;;;;;;;27.70;41.60;;;;;;1470217;79;681;-58
2022/07/27 01:12:32;;;;;;;;;;;27.70;41.60;;;;;;1438458;81;1402;-58
2022/07/27 01:14:34;;;;;;;;;;;27.70;41.60;;;;;;1453707;79;678;-58
2022/07/27 01:16:36;;;;;;;;;;;27.70;41.50;;;;;;1438454;81;703;-58
2022/07/27 01:18:38;;;;;;;;;;;27.60;41.50;;;;;;1480682;78;688;-57
2022/07/27 01:20:41;;;;;;;;;;;27.70;41.50;;;;;;1443750;81;685;-58
2022/07/27 01:22:43;;;;;;;;;;;27.60;41.50;;;;;;1436068;81;1130;-58
2022/07/27 01:24:45;;;;;;;;;;;27.60;41.50;;;;;;1460471;79;768;-58
2022/07/27 01:26:46;;;;;;;;;;;27.70;41.50;;;;;;1458942;79;1973;-58
2022/07/27 01:28:48;;;;;;;;;;;27.60;41.50;;;;;;1491006;79;678;-58
2022/07/27 01:30:50;;;;;;;;;;;27.70;41.40;;;;;;1472316;79;768;-58
2022/07/27 01:32:54;;;;;;;;;;;27.70;41.40;;;;;;1487517;77;1134;-59
2022/07/27 01:34:55;;;;;;;;;;;27.60;41.30;;;;;;1486025;78;1890;-58
2022/07/27 01:36:57;;;;;;;;;;;27.70;41.30;;;;;;1492642;78;680;-58
2022/07/27 01:38:59;;;;;;;;;;;27.70;41.30;;;;;;1486151;78;1528;-58
2022/07/27 01:41:01;;;;;;;;;;;27.70;41.20;;;;;;1495778;78;657;-58
2022/07/27 01:43:04;;;;;;;;;;;27.70;41.10;;;;;;1489558;78;1140;-58
2022/07/27 01:45:06;;;;;;;;;;;27.70;41.10;;;;;;1480166;78;642;-58
2022/07/27 01:47:08;;;;;;;;;;;27.70;41.20;;;;;;1504847;78;1930;-58
2022/07/27 01:49:10;;;;;;;;;;;27.60;41.10;;;;;;1493286;78;797;-57
2022/07/27 01:51:12;;;;;;;;;;;27.60;41.10;;;;;;1508312;78;933;-58
2022/07/27 01:53:14;;;;;;;;;;;27.60;41.00;;;;;;1494374;78;1639;-57
2022/07/27 01:55:15;;;;;;;;;;;27.60;41.00;;;;;;1475362;78;714;-57
2022/07/27 01:57:17;;;;;;;;;;;27.60;41.00;;;;;;1474522;78;693;-58
2022/07/27 01:59:19;;;;;;;;;;;27.60;41.00;;;;;;1486558;78;669;-58
2022/07/27 02:01:21;;;;;;;;;;;27.60;40.80;;;;;;1494089;78;691;-57
2022/07/27 02:03:23;;;;;;;;;;;27.70;40.80;;;;;;1488244;78;1174;-57
2022/07/27 02:05:25;;;;;;;;;;;27.60;40.70;;;;;;1492231;78;707;-58
2022/07/27 02:07:27;;;;;;;;;;;27.60;40.80;;;;;;1492996;78;1937;-58
2022/07/27 02:09:29;;;;;;;;;;;27.60;40.80;;;;;;1500961;78;752;-58
2022/07/27 02:13:50;;;;;;;;;;;27.60;40.60;;;;;;1476113;78;1650;-58
2022/07/27 02:15:52;;;;;;;;;;;27.60;40.70;;;;;;1492344;78;684;-57
2022/07/27 02:17:54;;;;;;;;;;;27.60;40.70;;;;;;1479772;78;829;-58
2022/07/27 02:19:56;;;;;;;;;;;27.60;40.80;;;;;;1487326;78;797;-58
2022/07/27 02:21:58;;;;;;;;;;;27.70;40.70;;;;;;1496851;77;1617;-58
2022/07/27 02:24:00;;;;;;;;;;;27.60;40.70;;;;;;1501505;78;735;-58
2022/07/27 02:26:02;;;;;;;;;;;27.70;40.70;;;;;;1499438;78;726;-58
2022/07/27 02:28:04;;;;;;;;;;;27.60;40.70;;;;;;1499020;78;1942;-58
2022/07/27 02:30:06;;;;;;;;;;;27.60;40.70;;;;;;1485589;78;674;-57
2022/07/27 02:32:08;;;;;;;;;;;27.60;40.70;;;;;;1492057;77;1142;-58
2022/07/27 02:34:10;;;;;;;;;;;27.60;40.70;;;;;;1495371;78;693;-57
2022/07/27 02:36:12;;;;;;;;;;;27.70;40.70;;;;;;1492857;78;1384;-58
2022/07/27 02:38:14;;;;;;;;;;;27.60;40.70;;;;;;1497240;78;746;-58
2022/07/27 02:40:16;;;;;;;;;;;27.60;40.60;;;;;;1488277;78;701;-57
2022/07/27 02:42:18;;;;;;;;;;;27.70;40.60;;;;;;1486539;78;1136;-58
2022/07/27 02:44:20;;;;;;;;;;;27.70;40.60;;;;;;1492588;78;668;-58
2022/07/27 02:46:22;;;;;;;;;;;27.60;40.60;;;;;;1487570;78;660;-58
2022/07/27 02:48:24;;;;;;;;;;;27.70;40.50;;;;;;1484621;78;1951;-58
2022/07/27 02:50:26;;;;;;;;;;;27.60;40.50;;;;;;1494203;78;1569;-58
2022/07/27 02:52:28;;;;;;;;;;;27.60;40.50;;;;;;1505045;78;1121;-58
2022/07/27 02:54:31;;;;;;;;;;;27.60;40.50;;;;;;1489614;78;812;-58
2022/07/27 02:56:33;;;;;;;;;;;27.70;40.40;;;;;;1493444;78;679;-58
2022/07/27 02:58:35;;;;;;;;;;;27.50;40.30;;;;;;1489871;78;727;-56
2022/07/27 03:00:36;;;;;;;;;;;27.60;40.40;;;;;;1496082;78;730;-58
2022/07/27 03:02:38;;;;;;;;;;;27.60;40.20;;;;;;1504560;77;1147;-58
2022/07/27 03:04:40;;;;;;;;;;;27.60;40.10;;;;;;1492398;78;1556;-56
2022/07/27 03:06:42;;;;;;;;;;;27.60;40.20;;;;;;1497288;78;699;-58
2022/07/27 03:08:44;;;;;;;;;;;27.50;40.20;;;;;;1511574;78;1945;-58
2022/07/27 03:10:46;;;;;;;;;;;27.60;40.20;;;;;;1493960;78;767;-58
2022/07/27 03:12:48;;;;;;;;;;;27.60;40.20;;;;;;1486583;78;1147;-57
2022/07/27 03:14:50;;;;;;;;;;;27.60;40.20;;;;;;1500313;78;788;-58
2022/07/27 03:16:52;;;;;;;;;;;27.50;40.20;;;;;;1506270;78;656;-58
2022/07/27 03:18:53;;;;;;;;;;;27.60;40.20;;;;;;1491795;78;1695;-58
2022/07/27 03:20:55;;;;;;;;;;;27.60;40.20;;;;;;1497605;78;690;-58
2022/07/27 03:22:57;;;;;;;;;;;27.60;40.10;;;;;;1493560;78;1175;-58
2022/07/27 03:25:00;;;;;;;;;;;27.60;40.10;;;;;;1493024;78;698;-57
2022/07/27 03:27:02;;;;;;;;;;;27.60;40.00;;;;;;1497776;78;689;-56
2022/07/27 03:29:03;;;;;;;;;;;27.50;40.00;;;;;;1491641;78;1960;-58
2022/07/27 03:31:05;;;;;;;;;;;27.60;40.10;;;;;;1488608;78;763;-58
2022/07/27 03:33:07;;;;;;;;;;;27.60;40.00;;;;;;1507345;77;1547;-58
2022/07/27 03:35:09;;;;;;;;;;;27.50;40.00;;;;;;1489416;78;711;-58
2022/07/27 03:37:11;;;;;;;;;;;27.60;40.00;;;;;;1494349;78;688;-57
2022/07/27 03:39:13;;;;;;;;;;;27.60;40.10;;;;;;1495220;78;741;-58
2022/07/27 03:41:15;;;;;;;;;;;27.60;40.10;;;;;;1502550;78;858;-58
2022/07/27 03:43:17;;;;;;;;;;;27.60;40.10;;;;;;1498850;77;1252;-58
2022/07/27 03:45:19;;;;;;;;;;;27.50;40.00;;;;;;1488516;78;684;-58
2022/07/27 03:47:22;;;;;;;;;;;27.60;40.10;;;;;;1484762;78;1934;-58
2022/07/27 03:49:24;;;;;;;;;;;27.60;40.00;;;;;;1502112;78;752;-58
2022/07/27 03:51:25;;;;;;;;;;;27.50;40.10;;;;;;1484279;78;681;-58
2022/07/27 03:53:27;;;;;;;;;;;27.70;40.20;;;;;;1486178;78;1135;-58
2022/07/27 03:55:29;;;;;;;;;;;27.60;40.20;;;;;;1496179;78;797;-57
2022/07/27 03:57:31;;;;;;;;;;;27.60;40.10;;;;;;1500877;78;691;-58
2022/07/27 03:59:33;;;;;;;;;;;27.60;40.10;;;;;;1490295;78;675;-57
2022/07/27 04:01:35;;;;;;;;;;;27.60;40.10;;;;;;1502739;78;1469;-58
2022/07/27 04:03:37;;;;;;;;;;;27.60;40.10;;;;;;1491783;77;1114;-58
2022/07/27 04:05:39;;;;;;;;;;;27.60;40.00;;;;;;1493595;78;656;-57
2022/07/27 04:07:41;;;;;;;;;;;27.60;40.00;;;;;;1492504;78;1942;-58
2022/07/27 04:09:42;;;;;;;;;;;27.60;40.00;;;;;;1499407;78;672;-58
2022/07/27 04:11:44;;;;;;;;;;;27.60;40.10;;;;;;1500131;77;1195;-58
2022/07/27 04:13:49;;;;;;;;;;;27.60;40.00;;;;;;1497380;78;1516;-58
2022/07/27 04:15:51;;;;;;;;;;;27.60;40.00;;;;;;1489683;78;725;-58
2022/07/27 04:17:53;;;;;;;;;;;27.60;40.10;;;;;;1504781;78;687;-56
2022/07/27 04:19:55;;;;;;;;;;;27.60;40.10;;;;;;1497232;78;679;-57
2022/07/27 04:21:57;;;;;;;;;;;27.60;40.10;;;;;;1493542;78;1174;-57
2022/07/27 04:23:59;;;;;;;;;;;27.60;40.10;;;;;;1492250;78;652;-57
2022/07/27 04:26:01;;;;;;;;;;;27.60;40.10;;;;;;1488510;78;664;-57
2022/07/27 04:28:02;;;;;;;;;;;27.50;40.20;;;;;;1495606;78;1938;-57
2022/07/27 04:30:05;;;;;;;;;;;27.50;40.10;;;;;;1485726;78;727;-57
2022/07/27 04:32:06;;;;;;;;;;;27.60;40.20;;;;;;1489768;77;1157;-57
2022/07/27 04:34:08;;;;;;;;;;;27.60;40.10;;;;;;1501966;78;731;-57
2022/07/27 04:36:10;;;;;;;;;;;27.60;40.20;;;;;;1479891;78;839;-58
2022/07/27 04:38:12;;;;;;;;;;;27.60;40.10;;;;;;1503589;78;730;-57
2022/07/27 04:40:14;;;;;;;;;;;27.60;40.10;;;;;;1496157;78;747;-57
2022/07/27 04:42:17;;;;;;;;;;;27.60;40.10;;;;;;1492934;78;1610;-56
2022/07/27 04:44:19;;;;;;;;;;;27.60;40.10;;;;;;1489205;78;686;-57
2022/07/27 04:46:20;;;;;;;;;;;27.60;40.20;;;;;;1489022;78;747;-57
2022/07/27 04:48:22;;;;;;;;;;;27.60;40.10;;;;;;1491575;78;1950;-57
2022/07/27 04:50:24;;;;;;;;;;;27.60;40.20;;;;;;1489214;78;693;-57
2022/07/27 04:52:26;;;;;;;;;;;27.60;40.10;;;;;;1479880;77;1220;-58
2022/07/27 04:54:28;;;;;;;;;;;27.60;40.10;;;;;;1483028;78;692;-57
2022/07/27 04:56:30;;;;;;;;;;;27.60;40.20;;;;;;1476185;78;1339;-57
2022/07/27 04:58:32;;;;;;;;;;;27.60;40.10;;;;;;1481903;78;691;-57
2022/07/27 05:00:33;;;;;;;;;;;27.60;40.00;;;;;;1478431;78;691;-57
2022/07/27 05:02:37;;;;;;;;;;;27.60;40.00;;;;;;1485555;78;1171;-57
2022/07/27 05:04:39;;;;;;;;;;;27.60;40.10;;;;;;1477000;78;1868;-57
2022/07/27 05:06:41;;;;;;;;;;;27.60;40.10;;;;;;1487573;78;724;-58
2022/07/27 05:08:43;;;;;;;;;;;27.60;40.20;;;;;;1481081;78;1939;-58
2022/07/27 05:10:45;;;;;;;;;;;27.60;40.10;;;;;;1493835;78;1548;-57
2022/07/27 05:12:47;;;;;;;;;;;27.60;39.90;;;;;;1499281;78;1183;-57
2022/07/27 05:14:49;;;;;;;;;;;27.60;39.70;;;;;;1495398;78;653;-57
2022/07/27 05:16:50;;;;;;;;;;;27.60;39.60;;;;;;1484685;78;683;-57
2022/07/27 05:18:52;;;;;;;;;;;27.50;39.60;;;;;;1492201;78;716;-57
2022/07/27 05:20:54;;;;;;;;;;;27.60;39.60;;;;;;1487883;78;714;-58
2022/07/27 05:22:57;;;;;;;;;;;27.60;39.60;;;;;;1495757;77;1191;-57
2022/07/27 05:24:59;;;;;;;;;;;27.70;39.70;;;;;;1485662;77;1527;-57
2022/07/27 05:27:00;;;;;;;;;;;27.60;39.70;;;;;;1493259;78;676;-56
2022/07/27 05:29:02;;;;;;;;;;;27.60;39.70;;;;;;1491197;78;1934;-57
2022/07/27 05:31:04;;;;;;;;;;;27.60;39.80;;;;;;1497031;78;684;-57
2022/07/27 05:33:06;;;;;;;;;;;27.60;39.80;;;;;;1490037;77;1141;-56
2022/07/27 05:35:08;;;;;;;;;;;27.60;39.70;;;;;;1483611;78;671;-57
2022/07/27 05:37:10;;;;;;;;;;;27.60;39.80;;;;;;1493630;78;686;-58
2022/07/27 05:39:12;;;;;;;;;;;27.60;39.70;;;;;;1480927;78;1539;-58
2022/07/27 05:41:14;;;;;;;;;;;27.60;39.70;;;;;;1488954;78;741;-57
2022/07/27 05:43:16;;;;;;;;;;;27.60;39.80;;;;;;1484537;78;1115;-57
2022/07/27 05:45:18;;;;;;;;;;;27.50;39.70;;;;;;1483682;78;693;-57
2022/07/27 05:47:20;;;;;;;;;;;27.50;39.80;;;;;;1490799;78;743;-57
2022/07/27 05:49:22;;;;;;;;;;;27.50;39.80;;;;;;1488121;78;1946;-56
2022/07/27 05:51:24;;;;;;;;;;;27.50;39.80;;;;;;1490802;78;683;-57
2022/07/27 05:53:26;;;;;;;;;;;27.50;39.90;;;;;;1493332;77;1585;-58
2022/07/27 05:55:28;;;;;;;;;;;27.40;39.90;;;;;;1497753;78;658;-58
2022/07/27 05:57:30;;;;;;;;;;;27.40;40.00;;;;;;1507323;77;801;-57
2022/07/27 05:59:31;;;;;;;;;;;27.40;39.90;;;;;;1509198;78;809;-57
2022/07/27 06:01:33;;;;;;;;;;;27.40;39.90;;;;;;1485427;78;637;-56
2022/07/27 06:03:37;;;;;;;;;;;27.40;40.00;;;;;;1483233;78;1125;-57
2022/07/27 06:05:39;;;;;;;;;;;27.40;39.90;;;;;;1486892;78;687;-58
2022/07/27 06:07:58;;;;;;;;;;;27.40;39.90;;;;;;1505734;78;1275;-57
2022/07/27 06:10:00;;;;;;;;;;;27.30;39.90;;;;;;1488831;78;1931;-56
2022/07/27 06:12:02;;;;;;;;;;;27.30;39.80;;;;;;1494853;77;1147;-58
2022/07/27 06:14:04;;;;;;;;;;;27.30;39.80;;;;;;1488533;78;741;-57
2022/07/27 06:16:06;;;;;;;;;;;27.30;39.80;;;;;;1490584;78;657;-58
2022/07/27 06:18:16;;;;;;;;;;;27.30;39.80;;;;;;1484375;78;732;-58
2022/07/27 06:20:11;;;;;;;;;;;27.30;39.80;;;;;;1482929;78;1734;-56
2022/07/27 06:22:13;;;;;;;;;;;27.30;39.90;;;;;;1477488;78;1555;-57
2022/07/27 06:24:16;;;;;;;;;;;27.30;39.90;;;;;;1487794;78;887;-57
2022/07/27 06:26:18;;;;;;;;;;;27.30;39.90;;;;;;1481307;78;786;-57
2022/07/27 06:28:20;;;;;;;;;;;27.30;39.80;;;;;;1483612;78;1940;-58
2022/07/27 06:30:22;;;;;;;;;;;27.30;39.90;;;;;;1481817;78;769;-59
2022/07/27 06:32:24;;;;;;;;;;;27.20;39.80;;;;;;1478706;77;1149;-57
2022/07/27 06:34:25;;;;;;;;;;;27.30;39.90;;;;;;1474464;78;1699;-59
2022/07/27 06:36:27;;;;;;;;;;;27.30;39.90;;;;;;1477643;78;657;-58
2022/07/27 06:38:29;;;;;;;;;;;27.40;39.80;;;;;;1480926;78;719;-58
2022/07/27 06:40:31;;;;;;;;;;;27.40;39.70;;;;;;1484255;78;636;-59
2022/07/27 06:42:33;;;;;;;;;;;27.40;39.60;;;;;;1477153;78;1142;-57
2022/07/27 06:44:35;;;;;;;;;;;27.40;39.70;;;;;;1486303;78;740;-57
2022/07/27 06:46:37;;;;;;;;;;;27.40;39.60;;;;;;1483970;78;912;-57
2022/07/27 06:48:39;;;;;;;;;;;27.40;39.50;;;;;;1478769;78;1920;-58
2022/07/27 06:50:41;;;;;;;;;;;27.50;39.50;;;;;;1482375;78;799;-57
2022/07/27 06:55:05;;;;;;;;;;;27.50;39.40;;;;;;1590048;73;1574;-64
2022/07/27 06:57:07;;;;;;;;;;;27.50;39.30;;;;;;1591692;73;691;-63
2022/07/27 06:59:09;;;;;;;;;;;27.50;39.20;;;;;;1590401;73;686;-64
2022/07/27 07:01:11;;;;;;;;;;;27.70;39.20;;;;;;1588253;73;708;-64
2022/07/27 07:03:13;;;;;;;;;;;27.60;39.00;;;;;;1588410;73;1453;-63
2022/07/27 07:05:15;;;;;;;;;;;27.60;38.90;;;;;;1590400;73;1029;-65
2022/07/27 07:07:17;;;;;;;;;;;27.70;38.90;;;;;;1589967;73;740;-64
2022/07/27 07:09:18;;;;;;;;;;;27.60;38.90;;;;;;1591228;73;1941;-64
2022/07/27 07:11:20;;;;;;;;;;;27.70;38.80;;;;;;1594967;73;685;-65
2022/07/27 07:13:22;;;;;;;;;;;27.60;38.80;;;;;;1594173;73;1147;-64
2022/07/27 07:15:25;;;;;;;;;;;27.60;38.80;;;;;;1595100;73;765;-65
2022/07/27 07:17:26;;;;;;;;;;;27.50;38.80;;;;;;1592588;73;1594;-63
2022/07/27 07:19:28;;;;;;;;;;;27.50;38.80;;;;;;1595174;73;666;-63
2022/07/27 07:21:30;;;;;;;;;;;27.50;38.80;;;;;;1594393;73;670;-62
2022/07/27 07:23:32;;;;;;;;;;;27.50;38.90;;;;;;1593432;73;1191;-63
2022/07/27 07:25:34;;;;;;;;;;;27.40;38.90;;;;;;1592683;73;718;-62
2022/07/27 07:27:36;;;;;;;;;;;27.40;38.90;;;;;;1588543;73;676;-63
2022/07/27 07:29:38;;;;;;;;;;;27.50;38.90;;;;;;1588985;73;1926;-62
2022/07/27 07:31:40;;;;;;;;;;;27.40;38.90;;;;;;1592056;73;1543;-64
2022/07/27 07:33:41;;;;;;;;;;;27.40;38.90;;;;;;1589779;73;1180;-65
2022/07/27 07:35:43;;;;;;;;;;;27.40;38.90;;;;;;1586255;73;774;-64
2022/07/27 07:37:45;;;;;;;;;;;27.40;38.80;;;;;;1593192;73;897;-67
2022/07/27 07:39:47;;;;;;;;;;;27.40;38.80;;;;;;1588315;73;702;-65
2022/07/27 07:41:49;;;;;;;;;;;27.40;38.90;;;;;;1592243;73;706;-64
2022/07/27 07:43:51;;;;;;;;;;;27.40;38.80;;;;;;1589323;74;1180;-65
2022/07/27 07:45:54;;;;;;;;;;;27.40;38.80;;;;;;1594282;73;1580;-66
2022/07/27 07:47:56;;;;;;;;;;;27.40;38.90;;;;;;1592283;73;727;-63
2022/07/27 07:49:57;;;;;;;;;;;27.30;38.80;;;;;;1592961;73;1924;-63
2022/07/27 07:51:59;;;;;;;;;;;27.30;38.80;;;;;;1590845;73;700;-64
2022/07/27 07:54:01;;;;;;;;;;;27.30;38.80;;;;;;1591796;73;1148;-65
2022/07/27 07:56:04;;;;;;;;;;;27.30;38.80;;;;;;1592404;73;716;-65
2022/07/27 07:58:05;;;;;;;;;;;27.30;38.70;;;;;;1592390;73;874;-66
2022/07/27 08:00:08;;;;;;;;;;;27.30;38.60;;;;;;1589434;73;1651;-65
2022/07/27 08:02:10;;;;;;;;;;;27.30;38.70;;;;;;1594091;73;717;-66
2022/07/27 08:04:12;;;;;;;;;;;27.30;38.60;;;;;;1588243;74;1164;-63
2022/07/27 08:06:14;;;;;;;;;;;27.30;38.50;;;;;;1594872;73;762;-67
2022/07/27 08:08:16;;;;;;;;;;;27.30;38.50;;;;;;1593044;73;803;-64
2022/07/27 08:10:19;;;;;;;;;;;27.40;38.50;;;;;;1594728;73;1927;-64
2022/07/27 08:12:20;;;;;;;;;;;27.40;38.40;;;;;;1595836;73;777;-65
2022/07/27 08:14:25;;;;;;;;;;;27.40;38.20;;;;;;1590973;73;1237;-64
2022/07/27 08:16:26;;;;;;;;;;;27.40;38.10;;;;;;1591889;73;1693;-65
2022/07/27 08:18:28;;;;;;;;;;;27.40;38.20;;;;;;1593520;73;739;-66
2022/07/27 08:20:30;;;;;;;;;;;27.40;38.00;;;;;;1592066;73;764;-65
2022/07/27 08:22:32;;;;;;;;;;;27.40;37.90;;;;;;1593521;73;670;-65
2022/07/27 08:24:34;;;;;;;;;;;27.40;37.70;;;;;;1595177;73;1107;-66
2022/07/27 08:26:36;;;;;;;;;;;27.40;37.60;;;;;;1594262;73;620;-67
2022/07/27 08:28:38;;;;;;;;;;;27.40;37.70;;;;;;1594396;73;1567;-65
2022/07/27 08:30:39;;;;;;;;;;;27.40;37.70;;;;;;1591686;73;1949;-65
2022/07/27 08:32:58;;;;;;;;;;;27.40;37.60;;;;;;1593219;73;663;-65
2022/07/27 08:35:00;;;;;;;;;;;27.40;37.60;;;;;;1595167;73;704;-66
2022/07/27 08:37:02;;;;;;;;;;;27.40;37.60;;;;;;1591348;73;745;-63
2022/07/27 08:39:07;;;;;;;;;;;27.50;37.60;;;;;;1596577;73;748;-64
2022/07/27 08:41:07;;;;;;;;;;;27.50;37.60;;;;;;1595271;73;1624;-65
2022/07/27 08:43:09;;;;;;;;;;;27.50;37.50;;;;;;1595096;73;1179;-64
2022/07/27 08:45:12;;;;;;;;;;;27.40;37.50;;;;;;1593206;73;696;-65
2022/07/27 08:47:15;;;;;;;;;;;27.50;37.50;;;;;;1598114;73;668;-65
2022/07/27 08:49:19;;;;;;;;;;;27.40;37.50;;;;;;1590502;73;1898;-66
2022/07/27 08:51:23;;;;;;;;;;;27.50;37.50;;;;;;1589662;73;741;-66
2022/07/27 08:53:25;;;;;;;;;;;27.50;37.40;;;;;;1588827;73;1143;-67
2022/07/27 08:55:27;;;;;;;;;;;27.60;37.30;;;;;;1589147;73;1524;-65
2022/07/27 08:57:29;;;;;;;;;;;27.60;37.30;;;;;;1597053;73;739;-66
2022/07/27 08:59:31;;;;;;;;;;;27.60;37.10;;;;;;1595199;73;709;-66
2022/07/27 09:01:34;;;;;;;;;;;27.60;36.70;;;;;;1590181;73;617;-64
2022/07/27 09:03:36;;;;;;;;;;;27.60;37.00;;;;;;1590052;73;1157;-65
2022/07/27 09:05:42;;;;;;;;;;;27.60;37.00;;;;;;1594880;73;733;-63
2022/07/27 09:07:44;;;;;;;;;;;27.60;36.90;;;;;;1589599;73;723;-64
2022/07/27 09:09:46;;;;;;;;;;;27.50;37.00;;;;;;1584675;73;1928;-65
2022/07/27 09:12:04;;;;;;;;;;;27.50;37.00;;;;;;1573415;73;758;-65
2022/07/27 09:14:07;;;;;;;;;;;27.50;37.00;;;;;;1575878;73;1125;-64
2022/07/27 09:16:09;;;;;;;;;;;27.50;37.00;;;;;;1594362;73;707;-66
2022/07/27 09:18:24;;;;;;;;;;;27.50;37.10;;;;;;1595823;73;778;-65
2022/07/27 09:20:26;;;;;;;;;;;27.50;37.10;;;;;;1594860;73;731;-64
2022/07/27 09:22:39;;;;;;;;;;;27.50;37.10;;;;;;1579755;73;703;-64
2022/07/27 09:24:42;;;;;;;;;;;27.40;37.10;;;;;;1590345;73;1713;-63
2022/07/27 09:26:44;;;;;;;;;;;27.50;37.10;;;;;;1594243;73;1884;-66
2022/07/27 09:28:46;;;;;;;;;;;27.40;37.10;;;;;;1598934;73;679;-66
2022/07/27 09:30:48;;;;;;;;;;;27.40;37.00;;;;;;1583634;73;1933;-64
2022/07/27 09:33:00;;;;;;;;;;;27.30;37.00;;;;;;1595078;73;1166;-64
2022/07/27 09:35:14;;;;;;;;;;;27.40;36.90;;;;;;1593261;73;816;-64
2022/07/27 09:37:18;;;;;;;;;;;27.40;36.90;;;;;;1589390;73;1569;-64
2022/07/27 09:39:21;;;;;;;;;;;27.30;36.90;;;;;;1596504;73;1740;-64
2022/07/27 09:41:23;;;;;;;;;;;27.30;36.90;;;;;;1595266;73;749;-64
2022/07/27 09:43:25;;;;;;;;;;;27.30;37.00;;;;;;1587390;73;1168;-63
2022/07/27 09:45:28;;;;;;;;;;;27.30;37.10;;;;;;1586807;73;893;-64
2022/07/27 09:47:30;;;;;;;;;;;27.40;37.10;;;;;;1590540;73;925;-64
2022/07/27 09:49:33;;;;;;;;;;;27.30;37.10;;;;;;1520407;77;1917;-65
2022/07/27 09:51:37;;;;;;;;;;;27.30;37.20;;;;;;1539089;75;1535;-64
2022/07/27 09:53:39;;;;;;;;;;;27.30;37.30;;;;;;1588347;73;1801;-64
2022/07/27 09:55:41;;;;;;;;;;;27.30;37.30;;;;;;1578974;73;799;-64
2022/07/27 09:57:54;;;;;;;;;;;27.30;37.30;;;;;;1594105;73;905;-64
2022/07/27 10:00:15;;;;;;;;;;;27.30;37.30;;;;;;1584050;73;769;-65
2022/07/27 10:02:17;;;;;;;;;;;27.30;37.30;;;;;;1584463;73;769;-68
2022/07/27 10:04:18;;;;;;;;;;;27.30;37.30;;;;;;1579175;73;1155;-67
2022/07/27 10:06:21;;;;;;;;;;;27.30;37.50;;;;;;1591134;73;1553;-67
2022/07/27 10:08:23;;;;;;;;;;;27.40;37.50;;;;;;1593256;73;737;-69
2022/07/27 10:10:25;;;;;;;;;;;27.40;37.60;;;;;;1595842;73;1937;-69
2022/07/27 10:12:28;;;;;;;;;;;27.30;37.60;;;;;;1584248;73;714;-69
2022/07/27 10:14:31;;;;;;;;;;;27.30;37.60;;;;;;1583206;73;1149;-73
2022/07/27 10:16:33;;;;;;;;;;;27.40;37.80;;;;;;1604040;73;714;-71
2022/07/27 10:18:43;;;;;;;;;;;27.40;37.70;;;;;;1582580;73;657;-76
2022/07/27 10:20:44;;;;;;;;;;;27.40;37.40;;;;;;1584314;73;1689;-70
2022/07/27 10:22:50;;;;;;;;;;;27.50;37.10;;;;;;1593609;73;1220;-73
2022/07/27 10:24:53;;;;;;;;;;;27.50;37.20;;;;;;1580585;73;590;-68
2022/07/27 10:26:55;;;;;;;;;;;27.40;37.10;;;;;;1587652;73;1982;-69
2022/07/27 10:28:58;;;;;;;;;;;27.40;37.10;;;;;;1604103;73;578;-68
2022/07/27 10:31:19;;;;;;;;;;;27.40;37.10;;;;;;1593640;73;1936;-68
2022/07/27 10:33:28;;;;;;;;;;;27.50;37.10;;;;;;1580811;73;1211;-67
2022/07/27 10:35:31;;;;;;;;;;;27.50;37.10;;;;;;1574980;73;1049;-68
2022/07/27 10:37:33;;;;;;;;;;;27.60;37.10;;;;;;1589808;73;655;-68
2022/07/27 10:39:42;;;;;;;;;;;27.50;36.80;;;;;;1583313;73;736;-68
2022/07/27 10:41:44;;;;;;;;;;;27.50;36.90;;;;;;1601848;73;696;-68
2022/07/27 10:43:46;;;;;;;;;;;27.60;36.90;;;;;;1592521;73;1155;-68
2022/07/27 10:45:49;;;;;;;;;;;27.60;36.80;;;;;;1590363;73;750;-67
2022/07/27 10:47:51;;;;;;;;;;;27.60;36.80;;;;;;1590033;73;1575;-68
2022/07/27 10:49:55;;;;;;;;;;;27.60;36.70;;;;;;1598279;73;1926;-68
2022/07/27 10:51:57;;;;;;;;;;;27.70;36.70;;;;;;1596148;73;1680;-69
2022/07/27 10:53:59;;;;;;;;;;;27.70;36.70;;;;;;1598876;73;1082;-68
2022/07/27 10:56:01;;;;;;;;;;;27.70;36.70;;;;;;1599874;73;810;-68
2022/07/27 10:58:05;;;;;;;;;;;27.70;36.70;;;;;;1595150;73;760;-68
2022/07/27 11:00:08;;;;;;;;;;;27.70;36.70;;;;;;1585066;73;715;-70
2022/07/27 11:02:11;;;;;;;;;;;27.70;36.60;;;;;;1588642;73;1531;-70
2022/07/27 11:04:13;;;;;;;;;;;27.70;36.00;;;;;;1599439;73;1131;-70
2022/07/27 11:06:19;;;;;;;;;;;27.80;36.30;;;;;;1594053;73;750;-70
2022/07/27 11:08:27;;;;;;;;;;;27.80;36.30;;;;;;1594438;73;822;-70
2022/07/27 11:10:32;;;;;;;;;;;27.80;36.20;;;;;;1593017;73;1926;-70
2022/07/27 11:12:32;;;;;;;;;;;27.70;36.30;;;;;;1593963;73;1676;-71
2022/07/27 11:14:50;;;;;;;;;;;27.90;36.10;;;;;;1600351;73;1091;-70
2022/07/27 11:16:52;;;;;;;;;;;27.90;36.00;;;;;;1588213;73;1575;-70
2022/07/27 11:18:55;;;;;;;;;;;27.80;36.10;;;;;;1594603;73;680;-70
2022/07/27 11:21:15;;;;;;;;;;;27.80;36.20;;;;;;1597776;73;715;-71
2022/07/27 11:23:20;;;;;;;;;;;27.70;36.20;;;;;;1605001;73;1113;-71
2022/07/27 11:25:22;;;;;;;;;;;27.70;36.30;;;;;;1585148;73;698;-70
2022/07/27 11:27:24;;;;;;;;;;;27.70;36.30;;;;;;1594290;73;684;-70
2022/07/27 11:29:26;;;;;;;;;;;27.70;36.50;;;;;;1595784;73;720;-70
2022/07/27 11:31:28;;;;;;;;;;;27.70;36.50;;;;;;1587305;73;1909;-70
2022/07/27 11:33:29;;;;;;;;;;;27.70;36.50;;;;;;1590719;73;1187;-68
2022/07/27 11:35:31;;;;;;;;;;;27.70;36.60;;;;;;1573666;73;679;-69
2022/07/27 11:37:33;;;;;;;;;;;27.70;36.60;;;;;;1584586;73;651;-69
2022/07/27 11:39:35;;;;;;;;;;;27.70;36.60;;;;;;1600069;73;780;-70
2022/07/27 11:41:37;;;;;;;;;;;27.70;36.50;;;;;;1586009;73;740;-72
2022/07/27 11:43:39;;;;;;;;;;;27.70;36.60;;;;;;1598463;73;1131;-70
2022/07/27 11:45:41;;;;;;;;;;;27.70;36.70;;;;;;1593634;73;1517;-69
2022/07/27 11:47:43;;;;;;;;;;;27.70;36.70;;;;;;1595259;73;951;-67
2022/07/27 11:49:45;;;;;;;;;;;27.70;36.50;;;;;;1601042;73;751;-69
2022/07/27 11:51:48;;;;;;;;;;;27.70;36.30;;;;;;1595889;73;1939;-70
2022/07/27 11:53:51;;;;;;;;;;;27.70;36.50;;;;;;1595051;73;1169;-70
2022/07/27 11:55:54;;;;;;;;;;;27.80;36.40;;;;;;1601586;73;1924;-72
2022/07/27 11:57:57;;;;;;;;;;;27.70;36.30;;;;;;1596289;73;1534;-71
2022/07/27 11:59:59;;;;;;;;;;;27.80;36.20;;;;;;1589342;73;1006;-69
2022/07/27 12:02:05;;;;;;;;;;;27.80;36.30;;;;;;1587295;73;932;-70
2022/07/27 12:04:09;;;;;;;;;;;27.80;36.20;;;;;;1589093;73;1171;-70
2022/07/27 12:06:10;;;;;;;;;;;27.80;36.20;;;;;;1587338;73;652;-70
2022/07/27 12:08:12;;;;;;;;;;;27.80;36.20;;;;;;1600154;73;734;-70
2022/07/27 12:10:15;;;;;;;;;;;27.80;36.00;;;;;;1597600;73;1913;-71
2022/07/27 12:12:17;;;;;;;;;;;27.80;36.00;;;;;;1588658;73;1576;-71
2022/07/27 12:14:29;;;;;;;;;;;27.70;36.10;;;;;;1595448;73;1133;-72
2022/07/27 12:16:32;;;;;;;;;;;27.70;36.30;;;;;;1585083;73;711;-70